Time;durP1;ratioP1;P1;durP2;ratioP2;P2;SDS_P1;SDS_P2;PMS_P1;PMS_P2;Temp;Humidity;BMP_temperature;BMP_pressure;BME280_temperature;BME280_humidity;BME280_pressure;Samples;Min_cycle;Max_cycle;Signal;HPM_P1;HPM_P2
2021/06/04 00:01:59;;;;;;;5.00;2.30;;;;;;;14.88;100.00;99435.78;1773041;79;21170;-67
2021/06/04 00:04:29;;;;;;;3.70;2.47;;;;;;;14.87;100.00;99433.58;1773195;79;20975;-67
2021/06/04 00:06:58;;;;;;;4.20;2.52;;;;;;;14.87;100.00;99431.38;1772914;79;20960;-68
2021/06/04 00:09:30;;;;;;;3.35;2.22;;;;;;;14.86;100.00;99435.81;1773404;79;20996;-68
2021/06/04 00:12:02;;;;;;;4.10;2.27;;;;;;;14.86;100.00;99436.27;1773389;80;21384;-67
2021/06/04 00:14:39;;;;;;;4.12;2.05;;;;;;;14.87;100.00;99438.89;1773637;79;21997;-68
2021/06/04 00:17:18;;;;;;;4.25;2.33;;;;;;;14.87;100.00;99444.20;1773198;79;20927;-67
2021/06/04 00:19:53;;;;;;;4.05;1.98;;;;;;;14.86;100.00;99437.14;1773553;79;21483;-66
2021/06/04 00:22:26;;;;;;;6.12;2.45;;;;;;;14.84;100.00;99440.28;1773188;79;21417;-67
2021/06/04 00:24:56;;;;;;;6.50;2.45;;;;;;;14.81;100.00;99437.68;1773544;79;21038;-67
2021/06/04 00:27:27;;;;;;;8.48;2.20;;;;;;;14.79;100.00;99438.16;1773099;79;21549;-66
2021/06/04 00:29:59;;;;;;;8.10;2.62;;;;;;;14.76;100.00;99431.58;1773374;80;21573;-67
2021/06/04 00:32:30;;;;;;;4.65;2.60;;;;;;;14.73;100.00;99430.31;1785442;78;21490;-68
2021/06/04 00:35:00;;;;;;;5.33;2.10;;;;;;;14.72;100.00;99432.09;1787988;80;21446;-66
2021/06/04 00:37:32;;;;;;;3.85;2.37;;;;;;;14.73;100.00;99432.52;1787763;80;20990;-67
2021/06/04 00:40:19;;;;;;;3.27;1.72;;;;;;;14.72;100.00;99425.91;1787210;78;21407;-67
2021/06/04 00:42:53;;;;;;;5.33;2.50;;;;;;;14.73;100.00;99428.98;1787097;78;20840;-68
2021/06/04 00:45:36;;;;;;;7.60;2.27;;;;;;;14.73;100.00;99425.00;1787521;78;21498;-67
2021/06/04 00:48:08;;;;;;;2.98;2.10;;;;;;;14.73;100.00;99428.98;1787842;78;20979;-66
2021/06/04 00:50:53;;;;;;;5.25;2.10;;;;;;;14.72;100.00;99425.91;1787753;79;21002;-66
2021/06/04 00:53:28;;;;;;;3.27;2.30;;;;;;;14.73;100.00;99419.23;1759515;80;21973;-67
2021/06/04 00:56:04;;;;;;;4.35;2.30;;;;;;;14.73;100.00;99423.67;1738492;80;20931;-67
2021/06/04 00:58:41;;;;;;;5.87;2.08;;;;;;;14.73;100.00;99419.69;1787831;78;20955;-67
2021/06/04 01:01:19;;;;;;;3.50;2.20;;;;;;;14.72;100.00;99422.80;1787778;78;20899;-67
2021/06/04 01:03:55;;;;;;;2.92;2.27;;;;;;;14.71;100.00;99419.72;1787844;79;20872;-67
2021/06/04 01:06:46;;;;;;;6.97;2.47;;;;;;;14.70;100.00;99426.38;1786741;80;21451;-67
2021/06/04 01:09:56;;;;;;;4.00;2.42;;;;;;;14.68;100.00;99426.41;1751302;79;21450;-66
2021/06/04 01:12:58;;;;;;;5.30;2.20;;;;;;;14.66;100.00;99424.23;1787573;78;20911;-67
2021/06/04 01:16:01;;;;;;;3.35;2.27;;;;;;;14.65;100.00;99418.92;1787631;78;20896;-67
2021/06/04 01:18:59;;;;;;;7.60;2.62;;;;;;;14.63;100.00;99428.24;1722949;81;21553;-66
2021/06/04 01:21:50;;;;;;;10.65;2.22;;;;;;;14.60;100.00;99422.11;1722122;82;21445;-67
2021/06/04 01:24:54;;;;;;;5.37;2.30;;;;;;;14.57;100.00;99424.38;1747393;80;20884;-66
2021/06/04 01:27:37;;;;;;;7.03;2.40;;;;;;;14.55;100.00;99419.54;1787213;78;21458;-65
2021/06/04 01:30:33;;;;;;;5.85;2.55;;;;;;;14.51;100.00;99421.83;1787815;78;21489;-67
2021/06/04 01:33:09;;;;;;;3.40;2.20;;;;;;;14.48;100.00;99425.86;1787639;78;21437;-66
2021/06/04 01:35:46;;;;;;;6.30;1.82;;;;;;;14.47;100.00;99425.44;1787559;80;21164;-66
2021/06/04 01:38:19;;;;;;;3.83;2.37;;;;;;;14.46;100.00;99432.52;1780264;78;21414;-66
2021/06/04 01:40:51;;;;;;;3.22;2.33;;;;;;;14.44;100.00;99434.33;1759315;80;21382;-67
2021/06/04 01:43:31;;;;;;;5.42;2.17;;;;;;;14.42;100.00;99436.55;1786683;78;21411;-67
2021/06/04 01:46:03;;;;;;;3.22;2.45;;;;;;;14.38;100.00;99433.52;1786890;78;21485;-67
2021/06/04 01:48:41;;;;;;;6.47;2.60;;;;;;;14.36;100.00;99435.33;1759450;80;21353;-67
2021/06/04 01:51:38;;;;;;;5.67;2.47;;;;;;;14.34;100.00;99445.09;1786927;78;20848;-65
2021/06/04 01:54:17;;;;;;;11.05;2.72;;;;;;;14.29;100.00;99442.52;1787699;80;21518;-67
2021/06/04 01:56:49;;;;;;;4.95;2.42;;;;;;;14.25;100.00;99439.49;1787591;78;21019;-66
2021/06/04 01:59:34;;;;;;;4.05;2.27;;;;;;;14.22;100.00;99447.50;1787192;78;21415;-66
2021/06/04 02:02:08;;;;;;;2.60;2.05;;;;;;;14.21;100.00;99441.77;1786149;78;22670;-68
2021/06/04 02:04:42;;;;;;;2.98;2.42;;;;;;;14.22;100.00;99442.19;1787863;80;21462;-66
2021/06/04 02:07:15;;;;;;;3.90;2.37;;;;;;;14.24;100.00;99452.33;1788107;80;21459;-68
2021/06/04 02:09:44;;;;;;;;;;;;;;;14.24;100.00;99452.33;1790318;80;21517;-68
2021/06/04 02:12:21;;;;;;;3.30;2.10;;;;;;;14.22;100.00;99450.61;1786391;78;20116;-67
2021/06/04 02:14:56;;;;;;;4.42;2.27;;;;;;;14.20;100.00;99460.37;1787574;79;22012;-68
2021/06/04 02:17:39;;;;;;;5.47;2.55;;;;;;;14.17;100.00;99460.80;1787694;80;20951;-69
2021/06/04 02:20:22;;;;;;;3.85;2.25;;;;;;;14.17;100.00;99454.63;1788205;78;20958;-69
2021/06/04 02:23:27;;;;;;;3.67;2.65;;;;;;;14.17;100.00;99456.83;1781642;80;21458;-67
2021/06/04 02:26:10;;;;;;;4.53;2.40;;;;;;;14.19;100.00;99458.16;1787859;78;20939;-69
2021/06/04 02:28:47;;;;;;;3.80;2.50;;;;;;;14.21;100.00;99457.69;1788380;78;21399;-69
2021/06/04 02:31:30;;;;;;;4.35;2.12;;;;;;;14.21;100.00;99460.34;1786379;78;20994;-69
2021/06/04 02:34:17;;;;;;;3.17;2.37;;;;;;;14.18;100.00;99464.34;1773251;79;20933;-69
2021/06/04 02:36:52;;;;;;;4.65;2.00;;;;;;;14.15;100.00;99461.28;1748463;80;21059;-68
2021/06/04 02:39:29;;;;;;;2.62;2.08;;;;;;;14.15;100.00;99463.06;1751850;80;21411;-69
2021/06/04 02:42:20;;;;;;;4.30;2.20;;;;;;;14.15;100.00;99461.28;1773488;79;21987;-69
2021/06/04 02:44:49;;;;;;;3.98;2.30;;;;;;;14.17;100.00;99463.45;1770992;79;20904;-69
2021/06/04 02:47:26;;;;;;;4.25;2.10;;;;;;;14.18;100.00;99463.01;1773375;80;21526;-68
2021/06/04 02:49:56;;;;;;;3.10;2.27;;;;;;;14.17;100.00;99470.09;1763985;79;21414;-68
2021/06/04 02:52:34;;;;;;;4.30;2.10;;;;;;;14.16;100.00;99466.14;1772966;79;21463;-69
2021/06/04 02:55:08;;;;;;;3.15;2.30;;;;;;;14.15;100.00;99466.59;1773264;79;21104;-68
2021/06/04 02:57:37;;;;;;;7.25;2.40;;;;;;;14.16;100.00;99472.77;1773398;80;20833;-68
2021/06/04 03:00:29;;;;;;;4.70;2.40;;;;;;;14.14;100.00;99468.81;1773281;79;21458;-68
2021/06/04 03:03:01;;;;;;;4.25;2.10;;;;;;;14.12;100.00;99467.08;1772137;80;21410;-69
2021/06/04 03:05:32;;;;;;;3.67;2.12;;;;;;;14.14;100.00;99469.27;1773267;79;21408;-68
2021/06/04 03:08:03;;;;;;;5.72;2.58;;;;;;;14.17;100.00;99466.11;1773651;79;21344;-69
2021/06/04 03:10:40;;;;;;;3.98;2.65;;;;;;;14.21;100.00;99472.73;1773175;79;20872;-69
2021/06/04 03:13:15;;;;;;;3.92;2.60;;;;;;;14.22;100.00;99473.16;1773485;79;21439;-69
2021/06/04 03:15:49;;;;;;;4.25;2.50;;;;;;;14.23;100.00;99480.22;1773209;81;21340;-68
2021/06/04 03:18:28;;;;;;;3.55;2.33;;;;;;;14.22;100.00;99473.16;1772825;79;21471;-68
2021/06/04 03:21:02;;;;;;;7.50;2.20;;;;;;;14.23;100.00;99476.23;1752271;80;20880;-68
2021/06/04 03:23:36;;;;;;;3.47;2.37;;;;;;;14.24;100.00;99480.19;1773330;80;20900;-68
2021/06/04 03:26:10;;;;;;;6.30;2.25;;;;;;;14.26;100.00;99481.05;1772955;79;20833;-69
2021/06/04 03:28:41;;;;;;;8.20;2.15;;;;;;;14.28;100.00;99481.89;1773415;79;20924;-68
2021/06/04 03:31:10;;;;;;;2.98;1.95;;;;;;;14.29;100.00;99483.65;1773096;81;21479;-70
2021/06/04 03:33:41;;;;;;;5.03;2.40;;;;;;;14.33;100.00;99488.01;1773244;79;21917;-69
2021/06/04 03:36:14;;;;;;;4.50;2.03;;;;;;;14.35;100.00;99477.37;1773479;81;20915;-69
2021/06/04 03:38:47;;;;;;;4.33;2.33;;;;;;;14.36;100.00;99478.67;1773458;79;20880;-68
2021/06/04 03:41:18;;;;;;;6.30;2.30;;;;;;;14.39;100.00;99486.58;1773430;81;20840;-67
2021/06/04 03:43:51;;;;;;;5.08;2.40;;;;;;;14.42;100.00;99483.00;1752212;80;20885;-68
2021/06/04 03:46:22;;;;;;;4.42;2.40;;;;;;;14.44;100.00;99483.43;1773357;79;21423;-71
2021/06/04 03:48:53;;;;;;;3.45;2.42;;;;;;;14.46;100.00;99480.75;1775403;79;20940;-76
2021/06/04 03:51:28;;;;;;;4.17;2.67;;;;;;;14.46;100.00;99483.41;1775322;79;21516;-68
2021/06/04 03:53:59;;;;;;;6.85;2.60;;;;;;;14.46;100.00;99483.41;1772407;79;21447;-70
2021/06/04 03:56:30;;;;;;;3.40;2.47;;;;;;;14.48;100.00;99484.26;1773565;79;20924;-70
2021/06/04 03:59:04;;;;;;;3.08;2.02;;;;;;;14.54;100.00;99491.24;1773985;79;21051;-66
2021/06/04 04:01:38;;;;;;;4.72;2.10;;;;;;;14.58;100.00;99486.30;1773484;81;20912;-68
2021/06/04 04:04:07;;;;;;;5.53;2.50;;;;;;;14.63;100.00;99489.30;1749011;80;21467;-69
2021/06/04 04:06:36;;;;;;;5.33;2.47;;;;;;;14.70;100.00;99488.78;1773333;81;21423;-70
2021/06/04 04:09:08;;;;;;;6.58;2.92;;;;;;;14.75;100.00;99486.47;1773659;79;20932;-71
2021/06/04 04:11:38;;;;;;;6.72;2.77;;;;;;;14.79;100.00;99480.66;1773362;79;21937;-70
2021/06/04 04:14:10;;;;;;;6.30;2.67;;;;;;;14.84;100.00;99480.12;1773781;79;21399;-74
2021/06/04 04:16:42;;;;;;;3.12;2.58;;;;;;;14.89;100.00;99488.88;1775255;81;20853;-71
2021/06/04 04:19:12;;;;;;;5.42;2.52;;;;;;;14.94;100.00;99497.64;1775331;81;21380;-77
2021/06/04 04:21:41;;;;;;;2.47;2.27;;;;;;;14.96;100.00;99493.17;1775214;79;20884;-78
2021/06/04 04:24:16;;;;;;;4.85;2.42;;;;;;;15.01;100.00;99495.74;1775379;79;21066;-77
2021/06/04 04:26:44;;;;;;;2.72;2.42;;;;;;;15.07;100.00;99493.84;1787407;79;20887;-70
2021/06/04 04:29:13;;;;;;;4.50;2.70;;;;;;;15.11;100.00;99493.34;1805058;79;20976;-70
2021/06/04 04:31:48;;;;;;;9.43;3.00;;;;;;;15.16;100.00;99487.97;1801900;79;20952;-71
2021/06/04 04:34:17;;;;;;;7.37;2.55;;;;;;;15.17;100.00;99486.61;1815121;78;21465;-71
2021/06/04 04:36:48;;;;;;;3.45;2.90;;;;;;;15.21;100.00;99490.95;1809873;78;21105;-70
2021/06/04 04:39:20;;;;;;;3.55;2.80;;;;;;;15.23;100.00;99486.48;1811504;78;20947;-71
2021/06/04 04:41:49;;;;;;;3.55;2.70;;;;;;;15.26;100.00;99486.42;1803953;78;21430;-71
2021/06/04 04:44:22;;;;;;;8.10;2.90;;;;;;;15.31;100.00;99493.86;1808102;78;20904;-69
2021/06/04 04:46:51;;;;;;;3.92;2.75;;;;;;;15.36;100.00;99483.13;1808372;78;20844;-70
2021/06/04 04:49:19;;;;;;;4.33;2.52;;;;;;;15.40;100.00;99483.49;1813059;78;21090;-73
2021/06/04 04:51:48;;;;;;;5.70;2.42;;;;;;;15.47;100.00;99487.77;1815676;78;20852;-72
2021/06/04 04:54:15;;;;;;;6.58;2.80;;;;;;;15.56;100.00;99489.37;1810964;78;20983;-72
2021/06/04 04:56:44;;;;;;;7.87;2.80;;;;;;;15.63;100.00;99497.70;1808867;78;20955;-71
2021/06/04 04:59:13;;;;;;;3.50;2.52;;;;;;;15.67;100.00;99498.94;1807524;78;21445;-73
2021/06/04 05:01:43;;;;;;;5.35;3.40;;;;;;;15.72;100.00;99496.17;1815998;78;21802;-73
2021/06/04 05:04:10;;;;;;;6.60;3.33;;;;;;;15.77;100.00;99496.08;1816458;78;20919;-73
2021/06/04 05:06:38;;;;;;;9.03;2.90;;;;;;;15.82;100.00;99496.40;1816888;78;20919;-73
2021/06/04 05:09:07;;;;;;;3.90;2.80;;;;;;;15.89;100.00;99500.67;1807226;78;21334;-73
2021/06/04 05:11:35;;;;;;;6.97;2.60;;;;;;;15.98;100.00;99499.59;1788164;78;21418;-72
2021/06/04 05:14:03;;;;;;;3.17;2.60;;;;;;;16.02;100.00;99500.81;1805053;78;21474;-72
2021/06/04 05:16:33;;;;;;;5.03;2.72;;;;;;;16.10;100.00;99498.02;1807511;78;20923;-73
2021/06/04 05:19:00;;;;;;;5.80;3.33;;;;;;;16.19;100.00;99500.46;1815140;78;20998;-75
2021/06/04 05:21:29;;;;;;;4.30;2.70;;;;;;;16.23;100.00;99496.81;1817013;78;21414;-73
2021/06/04 05:23:57;;;;;;;4.72;2.50;;;;;;;16.31;100.00;99501.50;1815008;78;20911;-75
2021/06/04 05:26:24;;;;;;;7.55;2.60;;;;;;;16.36;100.00;99499.61;1808260;78;21070;-72
2021/06/04 05:28:53;;;;;;;4.85;2.60;;;;;;;16.41;100.00;99502.16;1807306;78;20867;-73
2021/06/04 05:31:22;;;;;;;5.22;2.60;;;;;;;16.45;100.00;99500.30;1792103;78;20943;-76
2021/06/04 05:33:51;;;;;;;5.33;2.58;;;;;;;16.49;100.00;99501.52;1778561;79;20888;-77
2021/06/04 05:36:24;;;;;;;5.37;2.80;;;;;;;16.54;100.00;99500.94;1775097;79;20945;-75
2021/06/04 05:38:52;;;;;;;9.95;2.70;;;;;;;16.59;100.00;99497.73;1775266;79;21071;-78
2021/06/04 05:41:20;;;;;;;4.83;2.58;;;;;;;16.65;100.00;99504.70;1774836;79;20876;-76
2021/06/04 05:43:49;;;;;;;4.90;2.35;;;;;;;16.70;100.00;99506.83;1775418;79;20919;-78
2021/06/04 05:46:19;;;;;;;3.87;2.50;;;;;;;16.76;100.00;99509.79;1775279;79;20915;-77
2021/06/04 05:48:49;;;;;;;3.67;2.33;;;;;;;16.85;100.00;99509.55;1775314;81;21380;-78
2021/06/04 05:51:22;;;;;;;4.60;3.02;;;;;;;17.03;100.00;99512.19;1775377;81;21155;-77
2021/06/04 05:53:52;;;;;;;3.98;2.77;;;;;;;17.03;100.00;99512.19;1775194;79;20915;-77
2021/06/04 05:56:21;;;;;;;8.40;2.70;;;;;;;17.17;100.00;99515.39;1773564;79;21436;-69
2021/06/04 05:58:50;;;;;;;7.30;2.95;;;;;;;17.26;100.00;99511.14;1773561;79;21428;-69
2021/06/04 06:01:25;;;;;;;4.08;2.70;;;;;;;17.31;100.00;99511.89;1752534;81;20944;-67
2021/06/04 06:03:54;;;;;;;5.28;2.65;;;;;;;17.39;100.00;99516.55;1777513;79;21343;-67
2021/06/04 06:06:22;;;;;;;6.87;3.08;;;;;;;17.47;100.00;99516.33;1799717;79;20978;-66
2021/06/04 06:08:50;;;;;;;8.65;2.50;;;;;;;17.58;100.00;99509.80;1790136;79;20891;-66
2021/06/04 06:11:24;;;;;;;5.87;2.80;;;;;;;17.70;100.00;99509.94;1799644;79;20900;-67
2021/06/04 06:13:53;;;;;;;7.15;3.42;;;;;;;17.82;100.00;99510.91;1799423;79;21443;-67
2021/06/04 06:16:21;;;;;;;3.62;2.20;;;;;;;17.93;100.00;99507.92;1796028;79;21028;-68
2021/06/04 06:18:49;;;;;;;8.90;2.75;;;;;;;18.02;100.00;99514.34;1809209;79;21403;-67
2021/06/04 06:21:18;;;;;;;3.70;2.40;;;;;;;18.11;100.00;99508.72;1799160;79;20943;-67
2021/06/04 06:23:46;;;;;;;7.67;2.67;;;;;;;18.23;100.00;99511.47;1792065;79;20987;-67
2021/06/04 06:26:19;;;;;;;4.75;2.12;;;;;;;18.36;100.00;99505.27;1807446;79;20919;-67
2021/06/04 06:28:46;;;;;;;3.17;2.40;;;;;;;18.48;100.00;99516.47;1798394;79;21102;-68
2021/06/04 06:31:17;;;;;;;5.45;2.25;;;;;;;18.59;100.00;99508.56;1797039;78;20880;-68
2021/06/04 06:33:44;;;;;;;3.52;2.30;;;;;;;18.72;100.00;99514.82;1787927;78;20932;-68
2021/06/04 06:36:14;;;;;;;3.92;2.25;;;;;;;18.82;100.00;99512.25;1806334;79;21470;-67
2021/06/04 06:38:42;;;;;;;2.83;2.02;;;;;;;18.89;100.00;99504.89;1802540;79;20920;-68
2021/06/04 06:41:12;;;;;;;6.83;2.37;;;;;;;18.96;100.00;99508.27;1800651;79;21109;-68
2021/06/04 06:43:40;;;;;;;6.83;2.50;;;;;;;19.00;100.00;99509.91;1774920;79;21003;-68
2021/06/04 06:46:08;;;;;;;4.28;2.12;;;;;;;19.07;100.00;99512.77;1773191;79;21423;-68
2021/06/04 06:48:38;;;;;;;3.58;2.30;;;;;;;19.12;100.00;99509.01;1773391;81;20845;-68
2021/06/04 06:51:09;;;;;;;6.62;2.35;;;;;;;19.21;100.00;99511.82;1773249;79;20919;-68
2021/06/04 06:53:38;;;;;;;6.05;2.67;;;;;;;19.27;100.00;99508.92;1773574;79;21740;-69
2021/06/04 06:56:08;;;;;;;6.25;2.17;;;;;;;19.32;100.00;99513.65;1773156;79;20829;-67
2021/06/04 06:58:36;;;;;;;6.85;2.10;;;;;;;19.38;100.00;99508.54;1773484;79;21428;-68
2021/06/04 07:01:05;;;;;;;4.33;2.27;;;;;;;19.42;100.00;99511.08;1773177;79;21463;-67
2021/06/04 07:03:36;;;;;;;5.12;2.00;;;;;;;19.48;100.00;99516.20;1773498;79;21428;-67
2021/06/04 07:06:15;;;;;;;7.75;2.08;;;;;;;19.55;100.00;99507.98;1773243;79;21040;-67
2021/06/04 07:08:43;;;;;;;6.30;2.40;;;;;;;19.57;100.00;99507.00;1773381;81;20963;-67
2021/06/04 07:11:13;;;;;;;6.53;2.05;;;;;;;19.61;100.00;99509.09;1773185;81;21475;-68
2021/06/04 07:13:42;;;;;;;6.97;1.92;;;;;;;19.67;100.00;99508.87;1773456;79;20880;-67
2021/06/04 07:16:10;;;;;;;3.40;1.95;;;;;;;19.73;100.00;99506.84;1773318;80;20880;-67
2021/06/04 07:18:39;;;;;;;2.80;1.57;;;;;;;19.83;100.00;99510.50;1773468;81;21408;-67
2021/06/04 07:21:08;;;;;;;3.40;2.10;;;;;;;19.90;100.00;99503.55;1773092;81;21442;-68
2021/06/04 07:23:36;;;;;;;4.08;2.17;;;;;;;19.97;100.00;99504.18;1773489;79;20822;-68
2021/06/04 07:28:49;;;;;;;2.47;1.85;;;;;;;20.18;100.00;99496.64;1824369;78;22709;-68
2021/06/04 07:31:19;;;;;;;4.92;2.12;;;;;;;20.21;100.00;99496.52;1785566;80;20851;-68
2021/06/04 07:33:50;;;;;;;6.72;2.45;;;;;;;20.30;100.00;99495.28;1785753;79;21115;-68
2021/06/04 07:36:28;;;;;;;4.42;2.08;;;;;;;20.36;96.62;99503.10;1785606;79;20832;-68
2021/06/04 07:38:57;;;;;;;11.85;2.42;;;;;;;20.42;94.71;99502.89;1777391;79;20896;-68
2021/06/04 07:41:25;;;;;;;2.65;1.82;;;;;;;20.52;92.75;99499.36;1768200;80;20884;-68
2021/06/04 07:43:54;;;;;;;6.70;2.10;;;;;;;20.58;90.53;99495.96;1754831;80;20887;-68
2021/06/04 07:46:22;;;;;;;4.53;2.15;;;;;;;20.68;91.88;99497.32;1754547;81;21128;-67
2021/06/04 07:48:53;;;;;;;3.98;2.00;;;;;;;20.82;94.73;99505.28;1754763;80;21383;-68
2021/06/04 07:51:26;;;;;;;5.62;2.10;;;;;;;20.96;94.02;99498.86;1754579;80;20879;-68
2021/06/04 07:53:55;;;;;;;5.08;1.92;;;;;;;21.07;88.63;99499.27;1754166;81;20900;-68
2021/06/04 07:56:25;;;;;;;3.62;1.75;;;;;;;21.12;85.30;99495.92;1733420;81;20975;-67
2021/06/04 07:58:55;;;;;;;11.63;2.22;;;;;;;21.21;86.83;99498.67;1754845;80;21128;-67
2021/06/04 08:01:23;;;;;;;3.77;2.00;;;;;;;21.32;87.04;99495.11;1754435;81;20864;-67
2021/06/04 08:03:51;;;;;;;3.40;2.00;;;;;;;21.45;87.59;99490.06;1754526;80;20888;-66
2021/06/04 08:06:21;;;;;;;3.77;1.80;;;;;;;21.60;89.49;99492.05;1754482;80;21023;-67
2021/06/04 08:08:53;;;;;;;4.25;1.67;;;;;;;21.75;83.87;99486.44;1754680;80;20970;-67
2021/06/04 08:11:28;;;;;;;3.62;1.50;;;;;;;21.89;78.04;99502.82;1754413;81;22453;-67
2021/06/04 08:14:00;;;;;;;2.92;1.50;;;;;;;21.98;73.59;99492.52;1754382;80;20857;-67
2021/06/04 08:16:28;;;;;;;3.45;1.70;;;;;;;22.13;72.40;99489.59;1754578;80;20892;-68
2021/06/04 08:18:57;;;;;;;4.70;1.95;;;;;;;22.26;70.35;99485.88;1754398;81;21443;-68
2021/06/04 08:21:33;;;;;;;5.28;1.77;;;;;;;22.39;69.82;99485.68;1754542;80;21438;-68
2021/06/04 08:24:01;;;;;;;3.10;1.75;;;;;;;22.47;69.46;99482.14;1754362;81;21814;-68
2021/06/04 08:26:33;;;;;;;3.70;2.00;;;;;;;22.51;67.12;99481.05;1754437;81;21411;-68
2021/06/04 08:29:02;;;;;;;2.10;1.80;;;;;;;22.54;67.32;99484.05;1759936;81;20923;-67
2021/06/04 08:31:30;;;;;;;5.55;2.10;;;;;;;22.53;66.86;99480.97;1785350;78;20999;-67
2021/06/04 08:33:58;;;;;;;3.35;1.60;;;;;;;22.52;64.86;99481.44;1788785;78;20970;-68
2021/06/04 08:36:31;;;;;;;6.28;1.92;;;;;;;22.59;65.99;99482.00;1777006;80;21144;-67
2021/06/04 08:39:01;;;;;;;6.12;1.70;;;;;;;22.71;67.61;99481.42;1759821;80;20931;-68
2021/06/04 08:41:43;;;;;;;6.90;1.50;;;;;;;22.82;64.69;99484.94;1759857;81;20899;-68
2021/06/04 08:44:20;;;;;;;5.70;1.50;;;;;;;22.89;61.40;99480.52;1759523;80;20931;-67
2021/06/04 08:46:56;;;;;;;6.53;1.70;;;;;;;23.04;61.93;99479.33;1758946;81;20972;-68
2021/06/04 08:50:03;;;;;;;3.83;1.80;;;;;;;23.14;59.51;99468.01;1759597;80;21158;-66
2021/06/04 08:52:45;;;;;;;2.02;1.45;;;;;;;23.10;54.75;99475.84;1740592;81;21410;-65
2021/06/04 08:55:27;;;;;;;4.47;1.80;;;;;;;22.96;52.31;99477.52;1759725;80;20915;-64
2021/06/04 08:58:18;;;;;;;3.15;1.42;;;;;;;22.83;51.29;99483.52;1759458;81;21430;-69
2021/06/04 09:00:56;;;;;;;9.70;2.25;;;;;;;22.70;49.90;99480.99;1759670;80;20940;-70
2021/06/04 09:03:44;;;;;;;2.33;1.60;;;;;;;22.54;50.53;99478.67;1759848;81;21117;-67
2021/06/04 09:06:19;;;;;;;6.22;2.12;;;;;;;22.45;51.77;99485.38;1759398;80;21533;-69
2021/06/04 09:08:47;;;;;;;3.95;2.40;;;;;;;22.33;52.22;99483.30;1758945;80;20928;-65
2021/06/04 09:11:30;;;;;;;13.08;2.25;;;;;;;22.33;55.40;99483.77;1759622;80;20903;-69
2021/06/04 09:13:58;;;;;;;3.58;1.70;;;;;;;;;;1760020;81;20920;-71
2021/06/04 09:17:00;;;;;;;6.58;1.98;;;;;;;22.39;53.17;99485.68;1759554;81;21600;-70
2021/06/04 09:19:45;;;;;;;4.78;2.10;;;;;;;;;;1759459;81;21379;-66
2021/06/04 09:22:13;;;;;;;4.50;2.52;;;;;;;22.27;48.82;99480.44;1759652;81;21493;-66
2021/06/04 09:24:47;;;;;;;4.80;2.20;;;;;;;22.20;48.45;99484.80;1759897;80;20872;-71
2021/06/04 09:27:24;;;;;;;5.72;2.10;;;;;;;22.15;49.27;99482.34;1786088;78;21497;-68
2021/06/04 09:30:09;;;;;;;5.45;1.65;;;;;;;22.12;50.92;99486.98;1767848;80;21502;-71
2021/06/04 09:32:37;;;;;;;5.10;1.50;;;;;;;22.10;51.72;99485.72;1753401;81;20845;-68
2021/06/04 09:35:15;;;;;;;2.95;1.40;;;;;;;22.12;51.86;99474.42;1769963;79;20948;-69
2021/06/04 09:37:42;;;;;;;3.33;1.45;;;;;;;22.19;55.09;99483.06;1766605;79;20911;-69
2021/06/04 09:40:21;;;;;;;1.62;1.20;;;;;;;22.27;54.85;99479.56;1768462;79;20892;-68
2021/06/04 09:43:06;;;;;;;3.90;1.40;;;;;;;22.33;53.90;99477.05;1771598;81;21089;-66
2021/06/04 09:45:40;;;;;;;7.28;1.50;;;;;;;22.38;53.11;99476.34;1765907;81;21691;-65
2021/06/04 09:48:14;;;;;;;6.25;1.50;;;;;;;22.32;51.91;99476.65;1763216;79;21439;-67
2021/06/04 09:50:47;;;;;;;6.92;1.55;;;;;;;22.25;51.76;99480.11;1762944;79;21520;-64
2021/06/04 09:53:22;;;;;;;5.12;1.90;;;;;;;22.16;52.85;99476.49;1762871;79;20943;-66
2021/06/04 09:56:10;;;;;;;5.67;1.52;;;;;;;22.15;53.82;99478.78;1762893;79;21367;-66
2021/06/04 09:59:02;;;;;;;2.25;1.40;;;;;;;22.16;54.60;99470.64;1761980;79;20931;-67
2021/06/04 10:01:34;;;;;;;2.50;1.80;;;;;;;22.20;53.84;99466.87;1762720;79;20951;-66
2021/06/04 10:04:09;;;;;;;3.47;1.72;;;;;;;22.32;54.04;99468.11;1762033;79;20856;-65
2021/06/04 10:06:46;;;;;;;4.55;1.60;;;;;;;22.46;52.94;99463.40;1763106;79;21010;-66
2021/06/04 10:09:39;;;;;;;2.08;1.37;;;;;;;22.62;52.21;99453.62;1763077;79;21162;-66
2021/06/04 10:12:36;;;;;;;2.83;1.27;;;;;;;22.84;51.75;99459.71;1763009;79;21442;-67
2021/06/04 10:15:37;;;;;;;6.60;1.42;;;;;;;23.08;49.97;99452.66;1763061;79;20930;-66
2021/06/04 10:18:34;;;;;;;2.90;1.22;;;;;;;23.25;49.49;99455.36;1763309;81;21486;-66
2021/06/04 10:21:18;;;;;;;5.40;1.50;;;;;;;23.47;50.91;99452.39;1763079;80;21585;-66
2021/06/04 10:23:49;;;;;;;3.87;1.82;;;;;;;23.76;51.04;99449.52;1763423;79;21390;-67
2021/06/04 10:26:37;;;;;;;11.03;1.57;;;;;;;24.05;49.53;99457.31;1763107;79;20868;-66
2021/06/04 10:29:12;;;;;;;2.70;1.40;;;;;;;24.30;47.29;99449.63;1784737;78;20898;-66
2021/06/04 10:32:18;;;;;;;4.83;1.32;;;;;;;24.59;48.23;99449.77;1793259;78;20910;-67
2021/06/04 10:35:18;;;;;;;4.15;1.60;;;;;;;24.79;46.89;99449.48;1726122;81;21046;-66
2021/06/04 10:38:18;;;;;;;1.87;1.30;;;;;;;24.88;46.02;99455.68;1793265;78;21113;-67
2021/06/04 10:41:09;;;;;;;2.45;1.32;;;;;;;24.90;43.99;99451.06;1793340;78;21409;-66
2021/06/04 10:44:16;;;;;;;3.70;1.45;;;;;;;24.95;43.41;99448.95;1792647;78;21432;-66
2021/06/04 10:46:55;;;;;;;2.70;1.35;;;;;;;25.00;42.84;99450.92;1793362;78;20969;-67
2021/06/04 10:50:01;;;;;;;4.00;1.30;;;;;;;25.12;44.11;99448.47;1793391;78;21532;-66
2021/06/04 10:52:35;;;;;;;3.72;1.32;;;;;;;25.22;43.86;99441.06;1793188;78;21158;-64
2021/06/04 10:55:11;;;;;;;6.37;1.47;;;;;;;25.33;42.41;99443.97;1793175;78;20961;-66
2021/06/04 10:58:08;;;;;;;4.08;1.75;;;;;;;25.38;41.30;99446.39;1788418;78;21461;-66
2021/06/04 11:00:47;;;;;;;4.62;1.37;;;;;;;25.34;40.78;99443.49;1793254;78;20977;-65
2021/06/04 11:03:23;;;;;;;4.30;1.35;;;;;;;25.35;41.19;99442.05;1793105;78;20878;-65
2021/06/04 11:06:26;;;;;;;1.95;1.10;;;;;;;25.38;41.54;99443.69;1747812;78;21148;-65
2021/06/04 11:09:20;;;;;;;7.17;1.40;;;;;;;25.39;41.97;99440.02;1757942;80;21541;-66
2021/06/04 11:12:07;;;;;;;4.85;1.90;;;;;;;25.34;41.34;99430.86;1757920;80;20939;-63
2021/06/04 11:15:24;;;;;;;5.85;1.60;;;;;;;25.34;41.52;99439.44;1781743;78;20914;-64
2021/06/04 11:18:12;;;;;;;3.58;1.52;;;;;;;25.35;41.84;99434.42;1793595;78;21009;-66
2021/06/04 11:20:53;;;;;;;3.40;1.25;;;;;;;25.41;40.26;99423.23;1791627;78;21160;-66
2021/06/04 11:23:32;;;;;;;2.20;1.50;;;;;;;25.47;39.07;99431.44;1793675;78;21421;-65
2021/06/04 11:26:18;;;;;;;5.10;1.42;;;;;;;25.46;38.73;99423.82;1793240;78;21701;-65
2021/06/04 11:29:06;;;;;;;4.28;1.27;;;;;;;25.44;37.53;99420.34;1751190;80;20936;-68
2021/06/04 11:31:55;;;;;;;3.72;1.32;;;;;;;25.38;37.21;99424.30;1763052;79;20952;-67
2021/06/04 11:34:47;;;;;;;5.25;1.42;;;;;;;25.32;36.82;99419.77;1762948;79;21833;-66
2021/06/04 11:37:38;;;;;;;4.70;1.25;;;;;;;25.35;38.14;99415.52;1762935;79;20864;-66
2021/06/04 11:40:23;;;;;;;1.67;1.20;;;;;;;25.43;38.49;99422.66;1763272;80;21443;-66
2021/06/04 11:42:56;;;;;;;9.48;1.75;;;;;;;25.57;38.48;99416.42;1763367;79;21419;-67
2021/06/04 11:45:26;;;;;;;9.78;1.70;;;;;;;25.69;38.19;99415.67;1763025;79;20962;-67
2021/06/04 11:47:54;;;;;;;3.35;1.10;;;;;;;25.79;37.95;99417.30;1763333;79;21117;-66
2021/06/04 11:50:37;;;;;;;1.92;1.20;;;;;;;25.76;37.66;99415.66;1763033;79;20955;-67
2021/06/04 11:53:32;;;;;;;2.72;1.50;;;;;;;25.78;37.07;99411.03;1763237;79;20916;-66
2021/06/04 11:56:01;;;;;;;1.98;1.10;;;;;;;25.66;36.41;99415.88;1763053;79;20991;-66
2021/06/04 11:58:35;;;;;;;1.85;1.30;;;;;;;25.56;36.40;99409.28;1763279;79;20930;-65
2021/06/04 12:01:26;;;;;;;2.15;1.10;;;;;;;25.51;36.32;99406.84;1763073;79;21505;-65
2021/06/04 12:04:10;;;;;;;5.22;1.30;;;;;;;25.56;36.85;99403.88;1762869;79;21023;-66
2021/06/04 12:06:52;;;;;;;5.40;1.17;;;;;;;25.66;36.74;99403.23;1762949;79;20860;-66
2021/06/04 12:09:37;;;;;;;4.12;1.17;;;;;;;25.76;36.35;99407.56;1763051;79;20868;-66
2021/06/04 12:12:25;;;;;;;2.90;1.10;;;;;;;25.83;36.15;99402.62;1763008;79;20923;-66
2021/06/04 12:15:00;;;;;;;2.55;1.40;;;;;;;25.97;36.27;99410.70;1763167;79;21513;-66